• Join FlightAware (Why Join?)
  • Login
  • US Flag 
12:38PM EST


 

Airport Tracker/Info


-or-


 

Live Flight TrackerFlight Track Log ✈ QTR343 ✈ 24-Sep-2013 ✈ VGHS / DAC - OTBD

Flight Track Log - Related Links

Times and Time Zones

All times are in EDT time to prevent confusion due to time zone crossing. See the QTR343 flight status page for this flight to view local times or setup timezone preferences in your user account.

Time Position Orientation Groundspeed Altitude Reporting Facility
EDT Latitude Longitude Course Direction KTS MPH feet Rate Location/Type
06:42PM 23.4230 89.3600 258° West 422 486 24,300  Level FlightAware
06:43PM 23.4090 89.2830 259° West 422 486 25,400 1,440 Climbing FlightAware
06:43PM 23.3960 89.2150 258° West 429 494 26,000 1,140 Climbing FlightAware
06:44PM 23.3800 89.1220 259° West 438 504 26,900 1,200 Climbing FlightAware
06:45PM 23.3660 89.0490 258° West 441 507 27,600 720 Climbing FlightAware
06:45PM 23.3450 88.9380 258° West 448 516 28,000 240 Climbing FlightAware
06:46PM 23.3320 88.8680 259° West 448 516 28,000 1,140 Level FlightAware
06:47PM 23.3090 88.7420 259° West 458 527 29,700 1,860 Climbing FlightAware
06:47PM 23.2930 88.6530 259° West 466 536 30,700 840 Climbing FlightAware
06:48PM 23.2810 88.5870 259° West 466 536 30,700 780 Level FlightAware
06:49PM 23.2620 88.4850 259° West 474 545 31,700 1,140 Climbing FlightAware
06:49PM 23.2480 88.4080 259° West 479 551 32,000 660 Climbing FlightAware
06:50PM 23.2330 88.3280 258° West 482 555 32,500 780 Climbing FlightAware
06:50PM 23.2160 88.2390 258° West 485 558 33,000 720 Climbing FlightAware
06:51PM 23.2000 88.1520 259° West 488 562 33,400 600 Climbing FlightAware
06:52PM 23.1870 88.0810 259° West 491 565 33,700 360 Climbing FlightAware
06:52PM 23.1720 88.0080 257° West 490 564 33,800 60 Climbing FlightAware
06:53PM 23.1580 87.9340 258° West 490 564 33,800  Level FlightAware
06:53PM 23.1430 87.8600 258° West 490 564 33,800  Level FlightAware
06:54PM 23.1290 87.7860 258° West 490 564 33,800  Level FlightAware
06:54PM 23.1140 87.7100 258° West 490 564 33,800  Level FlightAware
06:55PM 23.0990 87.6340 258° West 490 564 33,800 3,060 Level FlightAware
06:56PM 23.0690 87.4670 259° West 468 539 37,700 3,480 Climbing FlightAware
06:56PM 23.0530 87.3860 258° West 467 537 38,100 660 Climbing FlightAware
06:57PM 23.0390 87.3110 259° West 465 535 38,500 420 Climbing FlightAware
06:58PM 23.0210 87.2180 258° West 463 533 38,700 120 Climbing FlightAware
06:58PM 23.0070 87.1490 258° West 463 533 38,700  Level FlightAware
06:59PM 22.9930 87.0770 258° West 463 533 38,700  Level FlightAware
06:59PM 22.9790 87.0040 258° West 463 533 38,700  Level FlightAware
07:00PM 22.9650 86.9340 258° West 463 533 38,700  Level FlightAware
07:01PM 22.9510 86.8640 258° West 463 533 38,700  Level FlightAware
07:01PM 22.9370 86.7930 258° West 463 533 38,700 1,020 Level FlightAware
07:02PM 22.9030 86.6210 258° West 473 544 40,000 1,080 Climbing FlightAware
07:02PM 22.8910 86.5630 257° West 473 544 40,000  Level FlightAware
07:03PM 22.8760 86.4920 257° West 473 544 40,000  Level FlightAware
07:04PM 22.8610 86.4210 257° West 473 544 40,000  Level FlightAware
07:04PM 22.8450 86.3480 257° West 473 544 40,000  Level FlightAware
07:05PM 22.8310 86.2820 257° West 473 544 40,000  Level FlightAware
07:05PM 22.8160 86.2110 257° West 473 544 40,000  Level FlightAware
07:06PM 22.8010 86.1400 257° West 473 544 40,000  Level FlightAware
07:07PM 22.7860 86.0690 257° West 473 544 40,000  Level FlightAware
07:07PM 22.7720 86.0020 257° West 473 544 40,000  Level FlightAware
07:08PM 22.7570 85.9320 257° West 473 544 40,000  Level FlightAware
07:08PM 22.7470 85.8840 257° West 473 544 40,000  Level FlightAware
07:09PM 22.7310 85.8140 256° West 473 544 40,000  Level FlightAware
07:09PM 22.7160 85.7410 257° West 473 544 40,000  Level FlightAware
07:10PM 22.7010 85.6700 257° West 473 544 40,000  Level FlightAware
07:11PM 22.6860 85.6000 257° West 473 544 40,000  Level FlightAware
07:11PM 22.6740 85.5430 257° West 473 544 40,000  Level FlightAware
07:12PM 22.6580 85.4700 257° West 473 544 40,000  Level FlightAware
07:13PM 22.9010 85.0770 304° West 474 545 40,000  Level FlightAware
07:13PM 22.9070 84.9930 274° West 475 547 40,000  Level FlightAware
07:14PM 22.9130 84.9170 275° West 474 545 40,000  Level FlightAware
07:15PM 22.9200 84.8350 275° West 473 544 40,000  Level FlightAware
07:15PM 22.9270 84.7410 275° West 473 544 40,000  Level FlightAware
07:16PM 22.9330 84.6560 274° West 472 543 40,000  Level FlightAware
07:16PM 22.9390 84.5820 275° West 472 543 40,000  Level FlightAware
07:17PM 22.9450 84.4960 274° West 471 542 40,000  Level FlightAware
07:18PM 22.9510 84.4120 274° West 470 541 40,000  Level FlightAware
07:18PM 22.9570 84.3380 275° West 470 541 40,000  Level FlightAware
07:19PM 22.9630 84.2480 274° West 469 540 40,000  Level FlightAware
07:19PM 22.9690 84.1640 274° West 469 540 40,000  Level FlightAware
07:20PM 22.9740 84.0910 274° West 469 540 40,000  Level FlightAware
07:20PM 22.9790 84.0050 274° West 469 540 40,000  Level FlightAware
07:21PM 22.9820 83.9320 273° West 469 540 40,000  Level FlightAware
07:22PM 22.9870 83.8420 273° West 469 540 40,000  Level FlightAware
07:22PM 22.9920 83.7600 274° West 469 540 40,000  Level FlightAware
07:23PM 22.9960 83.6730 273° West 468 539 40,000  Level FlightAware
07:23PM 23.0000 83.5900 273° West 468 539 40,000  Level FlightAware
07:24PM 23.0040 83.5170 273° West 468 539 40,000  Level FlightAware
07:25PM 23.0090 83.4310 274° West 470 541 40,000  Level FlightAware
07:25PM 23.0130 83.3500 273° West 471 542 40,000  Level FlightAware
07:26PM 23.0170 83.2640 273° West 472 543 40,000  Level FlightAware
07:26PM 23.0210 83.1790 273° West 472 543 40,000  Level FlightAware
07:27PM 23.0250 83.1060 273° West 471 542 40,000  Level FlightAware
07:28PM 23.0310 82.9820 273° West 470 541 40,000  Level FlightAware
07:28PM 23.0340 82.9020 272° West 470 541 40,000  Level FlightAware
07:29PM 23.0380 82.8170 273° West 470 541 40,000  Level FlightAware
07:29PM 23.0420 82.7330 273° West 469 540 40,000  Level FlightAware
07:30PM 23.0460 82.6460 273° West 469 540 40,000  Level FlightAware
07:31PM 23.0490 82.5740 273° West 469 540 40,000  Level FlightAware
07:31PM 23.0530 82.4920 273° West 469 540 40,000  Level FlightAware
07:32PM 23.0570 82.4020 273° West 469 540 40,000  Level FlightAware
07:32PM 23.0590 82.3330 272° West 468 539 40,000  Level FlightAware
07:33PM 23.0620 82.2610 273° West 468 539 40,000  Level FlightAware
07:34PM 23.0640 82.1870 272° West 468 539 40,000  Level FlightAware
07:34PM 23.0740 82.0590 275° West 471 542 40,000  Level FlightAware
07:35PM 23.0790 81.9850 274° West 471 542 40,000  Level FlightAware
07:35PM 23.0830 81.9120 273° West 471 542 40,000  Level FlightAware
07:36PM 23.0880 81.8400 274° West 471 542 40,000  Level FlightAware
07:37PM 23.0930 81.7680 274° West 471 542 40,000  Level FlightAware
07:37PM 23.0970 81.6950 273° West 471 542 40,000  Level FlightAware
07:38PM 23.1020 81.6230 274° West 471 542 40,000  Level FlightAware
07:38PM 23.1070 81.5510 274° West 471 542 40,000  Level FlightAware
07:39PM 23.1110 81.4780 273° West 471 542 40,000  Level FlightAware
07:40PM 23.1160 81.4060 274° West 471 542 40,000  Level FlightAware
07:40PM 23.1200 81.3340 273° West 471 542 40,000  Level FlightAware
07:41PM 23.1250 81.2610 274° West 471 542 40,000  Level FlightAware
07:41PM 23.1300 81.1890 274° West 471 542 40,000  Level FlightAware
07:42PM 23.1340 81.1210 274° West 471 542 40,000  Level FlightAware
07:43PM 23.1390 81.0480 274° West 471 542 40,000  Level FlightAware
07:43PM 23.1440 80.9720 274° West 471 542 40,000  Level FlightAware
07:44PM 23.1480 80.8980 273° West 471 542 40,000  Level FlightAware
07:47PM 23.2050 80.5629 281° West  Level Estimated
07:48PM 23.2267 80.4340 280° West  Level Estimated
07:49PM 23.2483 80.3050 280° West  Level Estimated
07:50PM 23.2698 80.1759 280° West  Level Estimated
07:51PM 23.2912 80.0469 280° West  Level Estimated
07:52PM 23.3125 79.9177 280° West  Level Estimated
07:53PM 23.3337 79.7886 280° West  Level Estimated
07:54PM 23.3548 79.6594 280° West  Level Estimated
07:55PM 23.3758 79.5302 280° West  Level Estimated
07:55PM 23.4000 79.0610 280° West 478 550 40,000  Level FlightAware
07:56PM 23.3966 79.4009 280° West  Level Estimated
07:56PM 23.4120 78.9860 280° West 479 551 40,000  Level FlightAware
07:57PM 23.4250 78.9010 279° West 479 551 40,000  Level FlightAware
07:57PM 23.4390 78.8150 280° West 480 552 40,000  Level FlightAware
07:58PM 23.4520 78.7290 279° West 480 552 40,000  Level FlightAware
07:58PM 23.4660 78.6500 281° West 479 551 40,000  Level FlightAware
07:59PM 23.4830 78.5390 280° West 477 549 40,000  Level FlightAware
08:00PM 23.4970 78.4510 280° West 475 547 40,000  Level FlightAware
08:00PM 23.5100 78.3700 280° West 474 545 40,000  Level FlightAware
08:01PM 23.5230 78.2910 280° West 473 544 40,000  Level FlightAware
08:01PM 23.5360 78.2060 279° West 473 544 40,000  Level FlightAware
08:02PM 23.5490 78.1210 279° West 472 543 40,000  Level FlightAware
08:03PM 23.5610 78.0450 280° West 471 542 40,000  Level FlightAware
08:03PM 23.5750 77.9560 280° West 472 543 40,000  Level FlightAware
08:04PM 23.5880 77.8700 279° West 473 544 40,000  Level FlightAware
08:04PM 23.6010 77.7880 280° West 474 545 40,000  Level FlightAware
08:05PM 23.6130 77.7100 280° West 475 547 40,000  Level FlightAware
08:06PM 23.6260 77.6260 280° West 474 545 40,000  Level FlightAware
08:06PM 23.6380 77.5460 279° West 474 545 40,000  Level FlightAware
08:07PM 23.6510 77.4570 279° West 473 544 40,000  Level FlightAware
08:07PM 23.6630 77.3800 280° West 472 543 40,000  Level FlightAware
08:08PM 23.6760 77.2960 280° West 471 542 40,000  Level FlightAware
08:08PM 23.6880 77.2120 279° West 470 541 40,000  Level FlightAware
08:09PM 23.6990 77.1380 279° West 470 541 40,000  Level FlightAware
08:10PM 23.7120 77.0540 280° West 469 540 40,000  Level FlightAware
08:10PM 23.7240 76.9700 279° West 470 541 40,000  Level FlightAware
08:10PM 23.7300 76.9310 280° West 470 541 40,000  Level FlightAware
08:11PM 23.7470 76.8140 279° West 470 541 40,000  Level FlightAware
08:12PM 23.7600 76.7290 280° West 470 541 40,000  Level FlightAware
08:12PM 23.7700 76.6550 278° West 470 541 40,000  Level FlightAware
08:13PM 23.7830 76.5660 279° West 469 540 40,000  Level FlightAware
08:14PM 23.7940 76.4920 279° West 469 540 40,000  Level FlightAware
08:14PM 23.8070 76.4070 280° West 470 541 40,000  Level FlightAware
08:15PM 23.8180 76.3300 279° West 471 542 40,000  Level FlightAware
08:15PM 23.8300 76.2420 278° West 472 543 40,000  Level FlightAware
08:16PM 23.8430 76.1570 280° West 472 543 40,000  Level FlightAware
08:17PM 23.8610 76.0790 284° West 469 540 40,000  Level FlightAware
08:17PM 23.8840 75.9970 287° West 469 540 40,000  Level FlightAware
08:18PM 23.9070 75.9150 287° West 469 540 40,000  Level FlightAware
08:18PM 23.9290 75.8330 286° West 469 540 40,000  Level FlightAware
08:19PM 23.9500 75.7600 287° West 469 540 40,000  Level FlightAware
08:19PM 23.9720 75.6800 287° West 468 539 40,000  Level FlightAware
08:20PM 23.9940 75.5970 286° West 468 539 40,000  Level FlightAware
08:21PM 24.0150 75.5240 287° West 469 540 40,000  Level FlightAware
08:21PM 24.0380 75.4390 287° West 468 539 40,000  Level FlightAware
08:22PM 24.0600 75.3570 286° West 468 539 40,000  Level FlightAware
08:22PM 24.0800 75.2840 287° West 468 539 40,000  Level FlightAware
08:23PM 24.1020 75.2040 287° West 467 537 40,000  Level FlightAware
08:24PM 24.1230 75.1260 286° West 467 537 40,000  Level FlightAware
08:24PM 24.1460 75.0430 287° West 468 539 40,000  Level FlightAware
08:25PM 24.1670 74.9620 286° West 470 541 40,000  Level FlightAware
08:25PM 24.1870 74.8890 287° West 469 540 40,000  Level FlightAware
08:26PM 24.2090 74.8070 286° West 469 540 40,000  Level FlightAware
08:26PM 24.2310 74.7250 286° West 468 539 40,000  Level FlightAware
08:27PM 24.2530 74.6420 286° West 468 539 40,000  Level FlightAware
08:28PM 24.2730 74.5690 287° West 468 539 40,000  Level FlightAware
08:28PM 24.2940 74.4890 286° West 469 540 40,000  Level FlightAware
08:29PM 24.3160 74.4060 286° West 468 539 40,000  Level FlightAware
08:29PM 24.3370 74.3260 286° West 466 536 40,000  Level FlightAware
08:30PM 24.3570 74.2500 286° West 466 536 40,000  Level FlightAware
08:31PM 24.3790 74.1690 287° West 464 534 40,000  Level FlightAware
08:31PM 24.4000 74.0880 286° West 465 535 40,000  Level FlightAware
08:32PM 24.4200 74.0110 286° West 465 535 40,000  Level FlightAware
08:32PM 24.4420 73.9290 286° West 466 536 40,000  Level FlightAware
08:33PM 24.4620 73.8510 286° West 467 537 40,000  Level FlightAware
08:33PM 24.4830 73.7700 286° West 466 536 40,000  Level FlightAware
08:34PM 24.5040 73.6920 286° West 465 535 40,000  Level FlightAware
08:35PM 24.5200 73.6250 285° West 465 535 40,000  Level FlightAware
08:35PM 24.5450 73.5350 287° West 464 534 40,000  Level FlightAware
08:36PM 24.5660 73.4500 285° West 464 534 40,000  Level FlightAware
08:37PM 24.5980 73.3270 286° West 462 532 40,000  Level FlightAware
08:37PM 24.6180 73.2480 286° West 462 532 40,000  Level FlightAware
08:38PM 24.6390 73.1640 285° West 460 529 40,000  Level FlightAware
08:39PM 24.6600 73.0820 286° West 460 529 40,000  Level FlightAware
08:39PM 24.6830 72.9970 287° West 460 529 40,000  Level FlightAware
08:40PM 24.7000 72.9240 284° West 460 529 40,000  Level FlightAware
08:40PM 24.7240 72.8350 287° West 464 534 40,000  Level FlightAware
08:41PM 24.7440 72.7540 285° West 464 534 40,000  Level FlightAware
08:42PM 24.7610 72.6840 285° West 464 534 40,000  Level FlightAware
08:42PM 24.7770 72.6180 285° West 464 534 40,000  Level FlightAware
08:43PM 24.7940 72.5480 285° West 464 534 40,000  Level FlightAware
08:43PM 24.8110 72.4780 285° West 464 534 40,000  Level FlightAware
08:44PM 24.8540 72.3190 287° West 462 532 40,000  Level FlightAware
08:45PM 24.8730 72.2380 285° West 462 532 40,000  Level FlightAware
08:45PM 24.8900 72.1680 285° West 462 532 40,000  Level FlightAware
08:46PM 24.9070 72.0980 285° West 462 532 40,000  Level FlightAware
08:47PM 24.9370 71.9820 286° West 460 529 40,000  Level FlightAware
08:47PM 24.9560 71.9050 285° West 460 529 40,000  Level FlightAware
08:48PM 24.9730 71.8360 285° West 460 529 40,000  Level FlightAware
08:49PM 24.9900 71.7640 285° West 460 529 40,000  Level FlightAware
08:49PM 25.0070 71.6950 285° West 460 529 40,000  Level FlightAware
08:50PM 25.0240 71.6260 285° West 460 529 40,000  Level FlightAware
08:50PM 25.0400 71.5560 284° West 460 529 40,000  Level FlightAware
08:51PM 25.0570 71.4870 285° West 460 529 40,000  Level FlightAware
08:52PM 25.0740 71.4170 285° West 460 529 40,000  Level FlightAware
08:52PM 25.0910 71.3480 285° West 460 529 40,000  Level FlightAware
08:53PM 25.1080 71.2780 285° West 460 529 40,000  Level FlightAware
08:53PM 25.1250 71.2090 285° West 460 529 40,000  Level FlightAware
08:54PM 25.1420 71.1390 285° West 460 529 40,000  Level FlightAware
08:55PM 25.1590 71.0680 285° West 460 529 40,000  Level FlightAware
08:55PM 25.1760 70.9990 285° West 460 529 40,000  Level FlightAware
08:56PM 25.1930 70.9290 285° West 460 529 40,000  Level FlightAware
08:56PM 25.2090 70.8590 284° West 460 529 40,000  Level FlightAware
08:59PM 25.2282 70.5735 274° West  Level Estimated
09:00PM 25.2370 70.4406 274° West  Level Estimated
09:01PM 25.2456 70.3078 274° West  Level Estimated
09:02PM 25.2541 70.1749 274° West  Level Estimated
09:03PM 25.2625 70.0420 274° West  Level Estimated
09:04PM 25.2708 69.9091 274° West  Level Estimated
09:05PM 25.2789 69.7761 274° West  Level Estimated
09:06PM 25.2869 69.6432 274° West  Level Estimated
09:07PM 25.2949 69.5102 274° West  Level Estimated
09:08PM 25.3027 69.3772 274° West  Level Estimated
09:09PM 25.3104 69.2442 274° West  Level Estimated
09:10PM 25.3179 69.1112 274° West  Level Estimated
09:11PM 25.3253 68.9782 274° West  Level Estimated
09:12PM 25.3327 68.8451 274° West  Level Estimated
09:13PM 25.3399 68.7121 273° West  Level Estimated
09:14PM 25.3470 68.5790 273° West  Level Estimated
09:15PM 25.3539 68.4459 273° West  Level Estimated
09:16PM 25.3608 68.3128 273° West  Level Estimated
09:17PM 25.3675 68.1796 273° West  Level Estimated
09:18PM 25.3741 68.0465 273° West  Level Estimated
09:19PM 25.3806 67.9133 273° West  Level Estimated
09:20PM 25.3869 67.7802 273° West  Level Estimated
09:21PM 25.3932 67.6470 273° West  Level Estimated
09:22PM 25.3993 67.5138 273° West  Level Estimated
09:23PM 25.4053 67.3806 273° West  Level Estimated
09:24PM 25.4111 67.2473 273° West  Level Estimated
09:25PM 25.4169 67.1141 273° West  Level Estimated
09:26PM 25.4226 66.9808 273° West  Level Estimated
09:27PM 25.4281 66.8476 273° West  Level Estimated
09:28PM 25.4335 66.7143 273° West  Level Estimated
09:29PM 25.4387 66.5810 273° West  Level Estimated
09:30PM 25.4439 66.4477 272° West  Level Estimated
09:31PM 25.4489 66.3144 272° West  Level Estimated
09:32PM 25.4539 66.1811 272° West  Level Estimated
09:33PM 25.4587 66.0478 272° West  Level Estimated
09:34PM 25.4634 65.9144 272° West  Level Estimated
09:35PM 25.4679 65.7811 272° West  Level Estimated
09:36PM 25.4723 65.6477 272° West  Level Estimated
09:37PM 25.4767 65.5143 272° West  Level Estimated
09:38PM 25.4809 65.3810 272° West  Level Estimated
09:39PM 25.4849 65.2476 272° West  Level Estimated
09:40PM 25.4889 65.1142 272° West  Level Estimated
09:41PM 25.4928 64.9808 272° West  Level Estimated
09:42PM 25.4965 64.8473 272° West  Level Estimated
09:43PM 25.5001 64.7139 272° West  Level Estimated
09:44PM 25.5035 64.5805 272° West  Level Estimated
09:45PM 25.5069 64.4470 272° West  Level Estimated
09:46PM 25.5101 64.3136 272° West  Level Estimated
09:47PM 25.5132 64.1801 272° West  Level Estimated
09:48PM 25.5162 64.0467 271° West  Level Estimated
09:49PM 25.5191 63.9132 271° West  Level Estimated
09:50PM 25.5218 63.7797 271° West  Level Estimated
09:51PM 25.5245 63.6462 271° West  Level Estimated
09:52PM 25.5270 63.5127 271° West  Level Estimated
09:53PM 25.5294 63.3793 271° West  Level Estimated
09:54PM 25.5316 63.2458 271° West  Level Estimated
09:55PM 25.5338 63.1123 271° West  Level Estimated
09:56PM 25.5358 62.9787 271° West  Level Estimated
09:57PM 25.5377 62.8452 271° West  Level Estimated
09:58PM 25.5395 62.7117 271° West  Level Estimated
09:59PM 25.5411 62.5782 271° West  Level Estimated
10:00PM 25.5427 62.4447 271° West  Level Estimated
10:01PM 25.5441 62.3111 271° West  Level Estimated
10:02PM 25.5454 62.1776 271° West  Level Estimated
10:03PM 25.5466 62.0441 271° West  Level Estimated
10:04PM 25.5476 61.9106 271° West  Level Estimated
10:05PM 25.5485 61.7770 270° West  Level Estimated
10:06PM 25.5494 61.6435 270° West  Level Estimated
10:07PM 25.5501 61.5099 270° West  Level Estimated
10:08PM 25.5506 61.3764 270° West  Level Estimated
10:09PM 25.5511 61.2429 270° West  Level Estimated
10:10PM 25.5514 61.1093 270° West  Level Estimated
10:11PM 25.5516 60.9758 270° West  Level Estimated
10:12PM 25.5517 60.8422 270° West  Level Estimated
10:13PM 25.5517 60.7087 270° West  Level Estimated
10:14PM 25.5515 60.5752 270° West  Level Estimated
10:15PM 25.5512 60.4416 270° West  Level Estimated
10:16PM 25.5508 60.3081 270° West  Level Estimated
10:17PM 25.5503 60.1745 270° West  Level Estimated
10:18PM 25.5497 60.0410 270° West  Level Estimated
10:19PM 25.5489 59.9075 270° West  Level Estimated
10:20PM 25.5480 59.7739 270° West  Level Estimated
10:20PM 25.2080 59.2630 270° West 457 526 40,000  Level FlightAware
10:20PM 25.2110 59.1920 273° West 457 526 40,000  Level FlightAware
10:21PM 25.2130 59.1110 272° West 457 526 40,000  Level FlightAware
10:22PM 25.2190 59.0010 273° West 457 526 40,000  Level FlightAware
10:22PM 25.2220 58.9150 272° West 457 526 40,000  Level FlightAware
10:23PM 25.2250 58.8430 273° West 457 526 40,000  Level FlightAware
10:24PM 25.2270 58.7720 272° West 457 526 40,000  Level FlightAware
10:24PM 25.2290 58.7000 272° West 457 526 40,000  Level FlightAware
10:25PM 25.2310 58.6290 272° West 457 526 40,000  Level FlightAware
10:25PM 25.2410 58.4860 274° West 455 524 40,000  Level FlightAware
10:26PM 25.2440 58.4060 272° West 454 522 40,000  Level FlightAware
10:27PM 25.2480 58.2940 272° West 454 522 40,000  Level FlightAware
10:27PM 25.2500 58.2230 272° West 454 522 40,000  Level FlightAware
10:28PM 25.2520 58.1520 272° West 454 522 40,000  Level FlightAware
10:29PM 25.2580 58.0280 273° West 456 525 40,000  Level FlightAware
10:29PM 25.2610 57.9510 272° West 456 525 40,000  Level FlightAware
10:30PM 25.2640 57.8700 272° West 457 526 40,000  Level FlightAware
10:30PM 25.2670 57.7720 272° West 458 527 40,000  Level FlightAware
10:31PM 25.2700 57.6930 272° West 458 527 40,000  Level FlightAware
10:32PM 25.2720 57.6090 272° West 457 526 40,000  Level FlightAware
10:32PM 25.2750 57.5220 272° West 455 524 40,000  Level FlightAware
10:33PM 25.2770 57.4540 272° West 454 522 40,000  Level FlightAware
10:33PM 25.2790 57.3690 272° West 454 522 40,000  Level FlightAware
10:34PM 25.2820 57.2570 272° West 455 524 40,000  Level FlightAware
10:35PM 25.2850 57.1680 272° West 456 525 40,000  Level FlightAware
10:35PM 25.2870 57.0850 272° West 456 525 40,000  Level FlightAware
10:36PM 25.2900 56.9940 272° West 456 525 40,000  Level FlightAware
10:37PM 25.2930 56.9000 272° West 455 524 40,000  Level FlightAware
10:37PM 25.2950 56.8240 272° West 455 524 40,000  Level FlightAware
10:38PM 25.2970 56.7440 272° West 454 522 40,000  Level FlightAware
10:38PM 25.3000 56.6710 273° West 454 522 40,000  Level FlightAware
10:39PM 25.2990 56.5750 269° West 452 520 40,000  Level FlightAware
10:40PM 25.2910 56.4990 263° West 451 519 40,000  Level FlightAware
10:40PM 25.2830 56.4140 264° West 452 520 40,000  Level FlightAware
10:41PM 25.2750 56.3350 264° West 452 520 40,000  Level FlightAware
10:41PM 25.2670 56.2610 263° West 452 520 40,000  Level FlightAware
10:42PM 25.2590 56.1790 264° West 452 520 40,000  Level FlightAware
10:42PM 25.2500 56.0990 263° West 452 520 40,000  Level FlightAware
10:43PM 25.2420 56.0150 264° West 452 520 40,000  Level FlightAware
10:44PM 25.2340 55.9400 263° West 453 521 40,000  Level FlightAware
10:44PM 25.2250 55.8550 263° West 454 522 40,000  Level FlightAware
10:45PM 25.2160 55.7720 263° West 457 526 40,000  Level FlightAware
10:45PM 25.2080 55.6960 263° West 458 527 40,000  Level FlightAware
10:46PM 25.1990 55.6150 263° West 459 528 40,000  Level FlightAware
10:47PM 25.1910 55.5360 264° West 458 527 40,000  Level FlightAware
10:47PM 25.1810 55.4490 263° West 454 522 40,000  Level FlightAware
10:48PM 25.1720 55.3650 263° West 451 519 40,000  Level FlightAware
10:49PM 25.1710 55.2560 269° West 451 519 40,000  Level FlightAware
10:49PM 25.1760 55.1700 274° West 454 522 40,000  Level FlightAware
10:50PM 25.1810 55.1010 275° West 458 527 40,000  Level FlightAware
10:50PM 25.1870 55.0130 274° West 457 526 40,000  Level FlightAware
10:51PM 25.1930 54.9290 275° West 456 525 40,000 -120 Level FlightAware
10:51PM 25.1990 54.8490 275° West 457 526 39,900 -480 Descending FlightAware
10:52PM 25.2040 54.7730 274° West 456 525 39,500 -840 Descending FlightAware
10:53PM 25.2090 54.6920 274° West 454 522 39,000 -960 Descending FlightAware
10:53PM 25.2150 54.6090 275° West 453 521 38,400 -1,020 Descending FlightAware
10:54PM 25.2210 54.5260 275° West 456 525 37,800 -1,200 Descending FlightAware
10:54PM 25.2260 54.4470 274° West 457 526 37,000 -1,920 Descending FlightAware
10:55PM 25.2310 54.3640 274° West 455 524 35,600 -3,000 Descending FlightAware
10:56PM 25.2360 54.2870 274° West 468 539 33,600 -2,880 Descending FlightAware
10:56PM 25.2420 54.2000 274° West 458 527 32,300 -2,640 Descending FlightAware
10:57PM 25.2470 54.1190 274° West 460 529 30,500 -2,460 Descending FlightAware
10:57PM 25.2530 54.0350 275° West 446 513 29,400 -1,800 Descending FlightAware
10:58PM 25.2570 53.9600 273° West 435 501 28,400 -2,040 Descending FlightAware
10:58PM 25.2620 53.8820 274° West 426 490 27,100 -2,160 Descending FlightAware
10:59PM 25.2670 53.8060 274° West 421 484 25,900 -2,220 Descending FlightAware
11:00PM 25.2720 53.7260 274° West 415 478 24,500 -1,860 Descending FlightAware
11:00PM 25.2760 53.6620 274° West 415 478 23,800 -1,380 Descending FlightAware
11:01PM 25.2810 53.5840 274° West 413 475 23,000 -1,080 Descending FlightAware
11:01PM 25.2850 53.5060 273° West 411 473 22,500 -720 Descending FlightAware
11:02PM 25.2900 53.4330 274° West 411 473 22,200 -480 Descending FlightAware
11:03PM 25.2890 53.3650 269° West 411 473 22,000 -180 Descending FlightAware
11:03PM 25.2870 53.2940 268° West 409 471 22,000  Level FlightAware
11:04PM 25.2850 53.2250 268° West 405 466 22,000 -300 Level FlightAware
11:04PM 25.2830 53.1450 268° West 404 465 21,700 -1,080 Descending FlightAware
11:05PM 25.2810 53.0700 268° West 398 458 20,700 -1,440 Descending FlightAware
11:05PM 25.2790 52.9980 268° West 389 448 20,000 -660 Descending FlightAware
11:06PM 25.2770 52.9320 268° West 388 447 20,000  Level FlightAware
11:07PM 25.2750 52.8610 268° West 390 449 20,000  Level FlightAware
11:07PM 25.2730 52.7900 268° West 389 448 20,000  Level FlightAware
11:08PM 25.2710 52.7170 268° West 389 448 20,000 -360 Level FlightAware
11:08PM 25.2690 52.6540 268° West 389 448 19,600 -900 Descending FlightAware
11:09PM 25.2670 52.5850 268° West 385 443 19,000 -1,200 Descending FlightAware
11:10PM 25.2650 52.5130 268° West 380 437 18,200 -1,620 Descending FlightAware
11:10PM 25.2630 52.4520 268° West 377 434 17,200 -1,500 Descending FlightAware
11:11PM 25.2620 52.3950 269° West 369 425 16,700 -960 Descending FlightAware
11:11PM 25.2590 52.3050 268° West 357 411 16,000 -840 Descending FlightAware
11:12PM 25.2570 52.2420 268° West 337 388 15,600 -1,020 Descending FlightAware
11:13PM 25.2550 52.1790 268° West 331 381 14,800 -1,260 Descending FlightAware
11:13PM 25.2530 52.1260 268° West 326 375 14,200 -1,200 Descending FlightAware
11:14PM 25.2510 52.0690 268° West 319 367 13,500 -1,140 Descending FlightAware
11:14PM 25.2490 52.0120 268° West 312 359 12,900 -780 Descending FlightAware
11:15PM 25.2470 51.9590 268° West 291 335 12,600 -1,140 Descending FlightAware
11:15PM 25.2450 51.9080 268° West 276 318 11,600 -1,980 Descending FlightAware
11:16PM 25.2440 51.8600 269° West 272 313 10,300 -1,980 Descending FlightAware
11:16PM 25.2430 51.8330 268° West 261 300 9,800 -1,500 Descending FlightAware
11:17PM 25.2410 51.8060 265° West 251 289 9,300 -2,040 Descending FlightAware
11:17PM 25.2400 51.7860 267° West 251 289 8,600 -2,580 Descending FlightAware
11:17PM 25.2390 51.7800 260° West 254 292 8,400 -1,740 Descending FlightAware
11:17PM 25.2350 51.7700 246° West 260 299 8,200 -1,740 Descending FlightAware
11:17PM 25.2310 51.7640 234° Southwest 263 303 8,000 -1,620 Descending FlightAware
11:17PM 25.2210 51.7570 212° Southwest 263 303 7,800 -1,200 Descending FlightAware
11:18PM 25.2170 51.7550 204° Southwest 267 307 7,700 -1,620 Descending FlightAware
11:18PM 25.2050 51.7520 193° South 270 311 7,400 -1,680 Descending FlightAware
11:18PM 25.1660 51.7650 163° South 292 336 6,700 -1,320 Descending FlightAware
11:19PM 25.1410 51.7780 155° Southeast 288 331 6,400 -1,320 Descending FlightAware
11:19PM 25.1160 51.7920 153° Southeast 286 329 5,800 -1,740 Descending FlightAware
11:19PM 25.0880 51.8060 156° South 282 325 5,100 -1,980 Descending FlightAware
11:19PM 25.0820 51.8070 171° South 279 321 4,900 -2,280 Descending FlightAware
11:19PM 25.0760 51.8070 180° South 277 319 4,800 -1,260 Descending FlightAware
11:20PM 25.0500 51.7940 204° Southwest 254 292 4,300 -1,320 Descending FlightAware
11:20PM 25.0440 51.7860 230° Southwest 248 285 4,100 -1,500 Descending FlightAware
11:20PM 25.0420 51.7750 259° West 243 280 3,900 -1,080 Descending FlightAware
11:20PM 25.0400 51.7520 265° West 240 276 3,600 -1,080 Descending FlightAware
11:21PM 25.0380 51.7250 265° West 238 274 3,200 -960 Descending FlightAware
11:21PM 25.0370 51.7030 267° West 229 264 3,000 -480 Descending FlightAware
11:21PM 25.0360 51.6800 267° West 218 251 2,900 -600 Descending FlightAware
11:22PM 25.0440 51.6540 289° West 195 224 2,500 -840 Descending FlightAware
11:22PM 25.0520 51.6510 341° North 196 226 2,400 -660 Descending FlightAware
11:22PM 25.0690 51.6490 354° North 188 216 2,200 -360 Descending FlightAware
11:23PM 25.0840 51.6430 340° North 170 196 2,200 120 Level FlightAware
11:23PM 25.1010 51.6360 340° North 146 168 2,300  Climbing FlightAware
11:23PM 25.1130 51.6300 336° Northwest 146 168 2,200 -180 Descending FlightAware
11:24PM 25.1280 51.6240 340° North 145 167 2,200  Level FlightAware
11:24PM 25.1400 51.6180 336° Northwest 144 166 2,200 -300 Level FlightAware
11:24PM 25.1530 51.6120 337° Northwest 146 168 2,000 -600 Descending FlightAware
11:25PM 25.1600 51.6090 339° North 143 165 1,900 -720 Descending FlightAware
11:25PM 25.1750 51.6030 340° North 135 155 1,600 -840 Descending FlightAware
11:25PM 25.1880 51.5970 337° Northwest 133 153 1,300 -840 Descending FlightAware
11:26PM 25.1970 51.5930 338° Northwest 133 153 1,100 -660 Descending FlightAware
11:26PM 25.2100 51.5880 341° North 132 152 900 -720 Descending FlightAware
11:26PM 25.2230 51.5820 337° Northwest 131 151 600 -660 Descending FlightAware
11:27PM 25.2360 51.5760 337° Northwest 132 152 400 -300 Descending FlightAware
11:27PM 25.2540 51.5680 338° Northwest 132 152 300 -180 Descending FlightAware